Time;durP1;ratioP1;P1;durP2;ratioP2;P2;SDS_P1;SDS_P2;PMS_P1;PMS_P2;Temp;Humidity;BMP_temperature;BMP_pressure;BME280_temperature;BME280_humidity;BME280_pressure;Samples;Min_cycle;Max_cycle;Signal;HPM_P1;HPM_P2
2021/03/31 00:00:30;;;;;;;12.15;3.20;;;;;;;;;;5070252;28;20535;-62
2021/03/31 00:02:56;;;;;;;10.48;3.17;;;;;;;;;;5071150;28;20023;-64
2021/03/31 00:05:22;;;;;;;5.60;3.20;;;;;;;;;;5070356;28;20024;-63
2021/03/31 00:07:47;;;;;;;21.08;3.50;;;;;;;;;;5079600;28;20369;-64
2021/03/31 00:10:17;;;;;;;12.10;3.60;;;;;;;;;;5083388;28;20392;-65
2021/03/31 00:12:43;;;;;;;;;;;;;;;;;;5070760;28;20021;-64
2021/03/31 00:15:08;;;;;;;8.73;3.75;;;;;;;;;;5070455;28;19920;-64
2021/03/31 00:17:33;;;;;;;7.32;3.40;;;;;;;;;;5074654;28;20020;-63
2021/03/31 00:19:58;;;;;;;7.53;2.70;;;;;;;;;;5070892;28;20024;-63
2021/03/31 00:22:24;;;;;;;5.50;3.13;;;;;;;;;;5070593;28;20036;-64
2021/03/31 00:24:49;;;;;;;5.47;3.33;;;;;;;;;;5069936;28;20271;-65
2021/03/31 00:27:14;;;;;;;6.72;3.17;;;;;;;;;;5082043;28;20301;-63
2021/03/31 00:29:39;;;;;;;7.67;3.90;;;;;;;;;;5070243;28;20032;-64
2021/03/31 00:32:05;;;;;;;7.43;3.70;;;;;;;;;;5073247;28;20258;-62
2021/03/31 00:34:30;;;;;;;12.10;3.97;;;;;;;;;;5069203;28;20376;-62
2021/03/31 00:36:55;;;;;;;9.27;3.50;;;;;;;;;;5070307;28;20024;-63
2021/03/31 00:39:20;;;;;;;9.13;3.73;;;;;;;;;;5069285;28;20749;-63
2021/03/31 00:41:45;;;;;;;9.43;3.70;;;;;;;;;;5071726;28;20354;-63
2021/03/31 00:44:11;;;;;;;6.43;3.20;;;;;;;;;;5069949;28;20616;-63
2021/03/31 00:46:36;;;;;;;9.52;3.35;;;;;;;;;;5082482;28;20274;-63
2021/03/31 00:49:01;;;;;;;17.67;3.72;;;;;;;;;;5074848;28;20070;-63
2021/03/31 00:51:27;;;;;;;7.72;3.30;;;;;;;;;;5069393;28;20021;-63
2021/03/31 00:53:53;;;;;;;9.27;3.35;;;;;;;;;;5069477;28;20021;-64
2021/03/31 00:56:18;;;;;;;15.23;3.45;;;;;;;;;;5069777;28;20086;-63
2021/03/31 00:58:43;;;;;;;13.27;2.92;;;;;;;;;;5069875;28;20461;-62
2021/03/31 01:01:10;;;;;;;6.55;2.70;;;;;;;;;;5069554;28;20435;-63
2021/03/31 01:03:35;;;;;;;9.20;2.80;;;;;;;;;;5071676;28;20073;-63
2021/03/31 01:06:00;;;;;;;9.57;3.58;;;;;;;;;;5069908;28;20040;-65
2021/03/31 01:08:25;;;;;;;9.50;3.00;;;;;;;;;;5070478;28;20024;-62
2021/03/31 01:10:53;;;;;;;8.33;3.17;;;;;;;;;;5072884;28;20024;-64
2021/03/31 01:13:18;;;;;;;13.18;4.10;;;;;;;;;;5069520;28;20302;-63
2021/03/31 01:15:50;;;;;;;12.95;3.88;;;;;;;;;;5070899;28;20052;-63
2021/03/31 01:18:27;;;;;;;13.82;3.90;;;;;;;;;;5069403;28;20036;-64
2021/03/31 01:21:04;;;;;;;16.83;3.85;;;;;;;;;;5067042;28;20020;-63
2021/03/31 01:23:35;;;;;;;7.55;3.63;;;;;;;;;;5069160;28;20534;-63
2021/03/31 01:26:09;;;;;;;6.13;3.10;;;;;;;;;;5064021;28;20032;-63
2021/03/31 01:28:48;;;;;;;7.75;3.47;;;;;;;;;;5069339;28;20016;-63
2021/03/31 01:31:28;;;;;;;11.10;4.05;;;;;;;;;;5068586;28;20438;-63
2021/03/31 01:34:07;;;;;;;7.25;3.50;;;;;;;;;;5069403;28;20017;-63
2021/03/31 01:36:33;;;;;;;7.45;3.58;;;;;;;;;;5069048;28;20078;-62
2021/03/31 01:39:01;;;;;;;7.65;3.63;;;;;;;;;;5074553;28;20025;-63
2021/03/31 01:41:27;;;;;;;13.45;2.97;;;;;;;;;;5069359;28;20392;-63
2021/03/31 01:43:54;;;;;;;10.40;2.90;;;;;;;;;;5070330;28;20021;-63
2021/03/31 01:46:22;;;;;;;8.60;2.90;;;;;;;;;;5072745;28;20396;-63
2021/03/31 01:48:47;;;;;;;9.45;3.47;;;;;;;;;;5088594;28;20063;-63
2021/03/31 01:51:13;;;;;;;7.93;3.30;;;;;;;;;;5073788;28;20048;-62
2021/03/31 01:53:39;;;;;;;7.55;3.38;;;;;;;;;;5072624;28;20534;-63
2021/03/31 01:56:05;;;;;;;13.52;4.45;;;;;;;;;;5080061;28;20027;-62
2021/03/31 01:58:31;;;;;;;9.82;4.43;;;;;;;;;;5072749;28;20028;-63
2021/03/31 02:00:57;;;;;;;10.90;3.97;;;;;;;;;;5072245;28;20094;-62
2021/03/31 02:03:22;;;;;;;7.63;3.38;;;;;;;;;;5072548;28;20380;-63
2021/03/31 02:05:48;;;;;;;7.57;3.65;;;;;;;;;;5075577;28;20024;-63
2021/03/31 02:08:13;;;;;;;8.63;3.88;;;;;;;;;;5072314;28;20086;-63
2021/03/31 02:10:40;;;;;;;10.70;3.53;;;;;;;;;;5072216;28;20480;-64
2021/03/31 02:13:05;;;;;;;10.27;3.72;;;;;;;;;;5072329;28;20028;-62
2021/03/31 02:15:32;;;;;;;8.32;3.50;;;;;;;;;;5074405;28;20392;-62
2021/03/31 02:17:58;;;;;;;6.47;3.33;;;;;;;;;;5086902;28;20022;-62
2021/03/31 02:20:24;;;;;;;9.82;3.30;;;;;;;;;;5074158;28;20385;-63
2021/03/31 02:22:50;;;;;;;6.13;3.83;;;;;;;;;;5076229;28;20024;-62
2021/03/31 02:25:15;;;;;;;5.85;2.72;;;;;;;;;;5072233;28;20028;-63
2021/03/31 02:27:41;;;;;;;8.85;4.30;;;;;;;;;;5071707;28;20021;-63
2021/03/31 02:30:09;;;;;;;13.60;3.00;;;;;;;;;;5071986;28;20024;-63
2021/03/31 02:32:36;;;;;;;16.20;3.05;;;;;;;;;;5072030;28;20563;-62
2021/03/31 02:35:02;;;;;;;10.88;3.45;;;;;;;;;;5072226;28;20056;-62
2021/03/31 02:37:27;;;;;;;12.95;3.45;;;;;;;;;;5072327;28;20055;-63
2021/03/31 02:39:53;;;;;;;9.52;3.83;;;;;;;;;;5072313;28;20025;-63
2021/03/31 02:42:20;;;;;;;9.18;3.72;;;;;;;;;;5075505;28;20048;-62
2021/03/31 02:44:46;;;;;;;7.72;4.65;;;;;;;;;;5071901;28;20021;-62
2021/03/31 02:47:14;;;;;;;11.73;3.60;;;;;;;;;;5072836;28;20028;-62
2021/03/31 02:49:40;;;;;;;9.50;3.97;;;;;;;;;;5071807;28;20373;-62
2021/03/31 02:52:06;;;;;;;5.40;3.05;;;;;;;;;;5074605;28;20032;-63
2021/03/31 02:54:32;;;;;;;16.38;3.70;;;;;;;;;;5086162;28;20013;-62
2021/03/31 02:56:57;;;;;;;10.00;4.03;;;;;;;;;;5076471;28;20077;-63
2021/03/31 02:59:22;;;;;;;16.75;3.65;;;;;;;;;;5083036;28;20376;-62
2021/03/31 03:01:48;;;;;;;10.50;3.67;;;;;;;;;;5070803;28;20020;-62
2021/03/31 03:04:14;;;;;;;7.05;3.60;;;;;;;;;;5072031;28;20425;-63
2021/03/31 03:06:40;;;;;;;11.77;4.07;;;;;;;;;;5073590;28;20059;-63
2021/03/31 03:09:06;;;;;;;11.05;4.03;;;;;;;;;;5081410;28;20048;-64
2021/03/31 03:11:32;;;;;;;8.70;3.80;;;;;;;;;;5071311;28;20031;-63
2021/03/31 03:13:58;;;;;;;10.02;3.97;;;;;;;;;;5080136;28;20103;-64
2021/03/31 03:16:23;;;;;;;7.30;3.58;;;;;;;;;;5071239;28;20123;-63
2021/03/31 03:18:48;;;;;;;11.82;3.38;;;;;;;;;;5079081;28;20024;-62
2021/03/31 03:21:14;;;;;;;8.48;3.65;;;;;;;;;;5071000;28;20074;-63
2021/03/31 03:23:43;;;;;;;17.77;3.90;;;;;;;;;;5075093;28;20028;-64
2021/03/31 03:26:12;;;;;;;11.45;3.28;;;;;;;;;;5070766;28;20029;-62
2021/03/31 03:28:39;;;;;;;8.45;3.92;;;;;;;;;;5071282;28;20166;-62
2021/03/31 03:31:06;;;;;;;12.18;4.55;;;;;;;;;;5070231;28;20035;-64
2021/03/31 03:33:31;;;;;;;7.55;3.88;;;;;;;;;;5070431;28;20093;-63
2021/03/31 03:35:56;;;;;;;13.25;4.20;;;;;;;;;;5071230;28;20059;-63
2021/03/31 03:38:22;;;;;;;10.55;3.58;;;;;;;;;;5075320;28;20485;-62
2021/03/31 03:40:48;;;;;;;10.02;3.58;;;;;;;;;;5070719;28;20020;-62
2021/03/31 03:43:14;;;;;;;9.10;3.95;;;;;;;;;;5053853;28;20047;-63
2021/03/31 03:45:41;;;;;;;9.45;3.63;;;;;;;;;;5070929;28;20024;-63
2021/03/31 03:48:06;;;;;;;13.75;4.50;;;;;;;;;;5070015;28;20028;-65
2021/03/31 03:50:31;;;;;;;12.45;4.32;;;;;;;;;;5080405;28;20027;-62
2021/03/31 03:52:57;;;;;;;15.52;3.92;;;;;;;;;;5084016;28;20012;-63
2021/03/31 03:55:23;;;;;;;9.27;3.70;;;;;;;;;;5078348;28;20099;-63
2021/03/31 03:57:49;;;;;;;15.00;3.70;;;;;;;;;;5079250;28;20103;-64
2021/03/31 04:00:15;;;;;;;16.25;4.15;;;;;;;;;;5070002;28;20556;-63
2021/03/31 04:02:41;;;;;;;10.13;4.20;;;;;;;;;;5063626;28;20016;-63
2021/03/31 04:05:07;;;;;;;8.63;4.03;;;;;;;;;;5072615;28;20027;-63
2021/03/31 04:07:32;;;;;;;16.15;4.50;;;;;;;;;;5070425;28;20016;-63
2021/03/31 04:09:58;;;;;;;11.70;4.05;;;;;;;;;;5073618;28;20081;-63
2021/03/31 04:12:23;;;;;;;7.55;3.78;;;;;;;;;;5068021;22;20041;-85
2021/03/31 04:14:49;;;;;;;14.80;4.38;;;;;;;;;;5008050;28;20025;-86
2021/03/31 04:17:16;;;;;;;10.70;4.15;;;;;;;;;;5008921;28;20018;-85
2021/03/31 04:19:43;;;;;;;12.32;4.35;;;;;;;;;;4991707;28;20528;-85
2021/03/31 04:22:10;;;;;;;12.43;4.55;;;;;;;;;;5021098;28;20022;-86
2021/03/31 04:24:35;;;;;;;12.10;4.03;;;;;;;;;;4993099;28;20028;-86
2021/03/31 04:27:02;;;;;;;7.50;4.00;;;;;;;;;;4997437;28;20479;-85
2021/03/31 04:29:27;;;;;;;11.63;4.20;;;;;;;;;;5027689;28;20021;-86
2021/03/31 04:31:52;;;;;;;10.05;4.32;;;;;;;;;;5009898;28;20476;-84
2021/03/31 04:34:22;;;;;;;9.70;3.92;;;;;;;;;;5007987;28;20107;-86
2021/03/31 04:36:47;;;;;;;9.07;4.03;;;;;;;;;;4996703;28;20497;-85
2021/03/31 04:39:14;;;;;;;17.65;5.55;;;;;;;;;;5006239;28;20028;-85
2021/03/31 04:41:39;;;;;;;9.82;3.97;;;;;;;;;;5002989;28;20425;-85
2021/03/31 04:44:05;;;;;;;11.50;4.32;;;;;;;;;;5026708;28;20132;-86
2021/03/31 04:46:30;;;;;;;13.57;4.88;;;;;;;;;;5010329;28;20021;-86
2021/03/31 04:48:55;;;;;;;11.32;3.95;;;;;;;;;;4991321;28;20033;-85
2021/03/31 04:51:20;;;;;;;6.55;3.35;;;;;;;;;;5006747;28;20365;-85
2021/03/31 04:53:46;;;;;;;7.68;3.80;;;;;;;;;;4996468;28;20533;-84
2021/03/31 04:56:12;;;;;;;14.55;4.15;;;;;;;;;;5001864;28;20067;-85
2021/03/31 04:58:37;;;;;;;7.97;3.55;;;;;;;;;;5001422;28;20104;-85
2021/03/31 05:01:02;;;;;;;16.90;4.20;;;;;;;;;;5002669;28;20021;-85
2021/03/31 05:03:28;;;;;;;11.63;4.15;;;;;;;;;;5008114;28;20018;-85
2021/03/31 05:05:53;;;;;;;9.23;3.78;;;;;;;;;;5025856;28;20067;-86
2021/03/31 05:08:18;;;;;;;8.73;3.97;;;;;;;;;;5007382;28;20100;-86
2021/03/31 05:10:44;;;;;;;9.55;3.72;;;;;;;;;;4997451;28;20473;-85
2021/03/31 05:13:09;;;;;;;11.48;4.28;;;;;;;;;;5007837;28;20493;-84
2021/03/31 05:15:35;;;;;;;10.90;4.03;;;;;;;;;;5005574;28;20164;-87
2021/03/31 05:18:00;;;;;;;8.95;4.07;;;;;;;;;;4993949;28;20029;-85
2021/03/31 05:20:25;;;;;;;8.70;3.78;;;;;;;;;;4998558;28;20021;-86
2021/03/31 05:22:51;;;;;;;10.38;3.97;;;;;;;;;;4996856;28;20032;-85
2021/03/31 05:25:16;;;;;;;9.70;3.92;;;;;;;;;;5003473;28;20056;-84
2021/03/31 05:27:41;;;;;;;7.15;3.95;;;;;;;;;;5027987;28;20060;-86
2021/03/31 05:30:07;;;;;;;11.13;4.00;;;;;;;;;;5021292;28;20068;-86
2021/03/31 05:32:33;;;;;;;10.10;4.03;;;;;;;;;;5018385;28;20076;-86
2021/03/31 05:34:59;;;;;;;10.02;4.10;;;;;;;;;;4997456;28;20493;-85
2021/03/31 05:37:24;;;;;;;12.77;4.32;;;;;;;;;;5003084;28;20102;-86
2021/03/31 05:39:49;;;;;;;11.23;4.55;;;;;;;;;;5024155;28;20025;-85
2021/03/31 05:42:15;;;;;;;12.02;4.35;;;;;;;;;;5001124;28;20116;-85
2021/03/31 05:44:41;;;;;;;17.25;4.43;;;;;;;;;;5012626;28;20113;-84
2021/03/31 05:47:07;;;;;;;14.93;4.22;;;;;;;;;;5008268;28;20038;-85
2021/03/31 05:49:33;;;;;;;19.60;5.25;;;;;;;;;;5008983;28;20417;-85
2021/03/31 05:51:59;;;;;;;14.10;4.18;;;;;;;;;;4990344;28;20025;-84
2021/03/31 05:54:24;;;;;;;14.68;5.72;;;;;;;;;;4990792;28;20034;-86
2021/03/31 05:56:53;;;;;;;12.18;5.28;;;;;;;;;;5022867;28;20035;-86
2021/03/31 05:59:18;;;;;;;13.30;5.22;;;;;;;;;;5013458;28;20033;-86
2021/03/31 06:01:44;;;;;;;19.48;6.15;;;;;;;;;;5026779;28;20017;-86
2021/03/31 06:04:09;;;;;;;19.20;6.45;;;;;;;;;;5006845;28;20428;-85
2021/03/31 06:06:35;;;;;;;13.70;5.70;;;;;;;;;;5026704;28;20018;-87
2021/03/31 06:09:05;;;;;;;16.05;5.05;;;;;;;;;;5017162;28;20028;-86
2021/03/31 06:11:45;;;;;;;9.50;4.78;;;;;;;;;;5032232;23;20052;-63
2021/03/31 06:14:10;;;;;;;20.50;5.75;;;;;;;;;;5059232;28;21679;-64
2021/03/31 06:16:44;;;;;;;11.07;5.38;;;;;;;;;;5051955;28;20106;-65
2021/03/31 06:19:17;;;;;;;16.42;5.07;;;;;;;;;;5039065;28;20060;-64
2021/03/31 06:21:43;;;;;;;14.60;5.53;;;;;;;;;;5033374;28;20037;-64
2021/03/31 06:24:24;;;;;;;9.80;5.50;;;;;;;;;;5043783;28;20100;-64
2021/03/31 06:26:50;;;;;;;18.15;5.80;;;;;;;;;;5036232;28;20036;-65
2021/03/31 06:29:15;;;;;;;20.05;4.47;;;;;;;;;;5048292;28;20021;-64
2021/03/31 06:31:42;;;;;;;12.95;4.43;;;;;;;;;;5019121;28;20028;-64
2021/03/31 06:34:08;;;;;;;12.85;4.82;;;;;;;;;;5045341;28;20382;-65
2021/03/31 06:36:38;;;;;;;12.40;5.00;;;;;;;;;;5044416;28;20025;-65
2021/03/31 06:39:20;;;;;;;18.77;7.15;;;;;;;;;;5043748;28;20025;-65
2021/03/31 06:41:57;;;;;;;23.20;7.45;;;;;;;;;;5046287;28;20477;-65
2021/03/31 06:44:36;;;;;;;15.20;7.32;;;;;;;;;;5044518;28;20031;-65
2021/03/31 06:47:16;;;;;;;12.05;6.10;;;;;;;;;;5043680;28;20029;-64
2021/03/31 06:49:41;;;;;;;10.13;5.00;;;;;;;;;;5039176;28;20041;-63
2021/03/31 06:52:08;;;;;;;10.05;4.45;;;;;;;;;;5043792;28;20071;-65
2021/03/31 06:54:40;;;;;;;9.48;4.30;;;;;;;;;;5035836;28;20021;-65
2021/03/31 06:57:06;;;;;;;8.63;3.85;;;;;;;;;;5044517;28;20025;-65
2021/03/31 06:59:32;;;;;;;10.13;4.35;;;;;;;;;;5045527;28;20534;-66
2021/03/31 07:01:57;;;;;;;13.88;4.70;;;;;;;;;;5045660;28;20061;-66
2021/03/31 07:04:23;;;;;;;15.13;4.30;;;;;;;;;;5048986;28;20021;-66
2021/03/31 07:06:59;;;;;;;11.02;3.95;;;;;;;;;;5026750;28;20029;-64
2021/03/31 07:09:24;;;;;;;15.25;4.28;;;;;;;;;;5049055;28;20388;-61
2021/03/31 07:11:49;;;;;;;12.55;4.65;;;;;;;;;;5033271;28;20101;-66
2021/03/31 07:14:15;;;;;;;14.07;4.60;;;;;;;;;;5034415;28;20029;-63
2021/03/31 07:16:40;;;;;;;16.67;4.82;;;;;;;;;;5031686;28;20636;-63
2021/03/31 07:19:06;;;;;;;13.00;4.32;;;;;;;;;;5038628;28;20429;-63
2021/03/31 07:21:32;;;;;;;14.15;4.55;;;;;;;;;;5047892;28;20151;-63
2021/03/31 07:23:57;;;;;;;14.65;4.53;;;;;;;;;;5041619;28;20025;-63
2021/03/31 07:26:23;;;;;;;11.07;4.22;;;;;;;;;;5040132;28;20021;-64
2021/03/31 07:28:50;;;;;;;11.55;4.82;;;;;;;;;;5050181;28;20413;-63
2021/03/31 07:31:20;;;;;;;12.75;4.25;;;;;;;;;;5043044;28;20053;-63
2021/03/31 07:33:48;;;;;;;8.82;4.00;;;;;;;;;;5032960;28;20017;-63
2021/03/31 07:36:14;;;;;;;10.35;4.10;;;;;;;;;;5036466;28;20016;-66
2021/03/31 07:38:39;;;;;;;15.70;5.10;;;;;;;;;;5037352;28;20440;-64
2021/03/31 07:41:05;;;;;;;9.35;4.53;;;;;;;;;;5034526;28;20025;-64
2021/03/31 07:43:38;;;;;;;14.25;5.18;;;;;;;;;;5032467;28;20652;-64
2021/03/31 07:46:07;;;;;;;15.05;5.03;;;;;;;;;;5047427;28;20037;-64
2021/03/31 07:48:33;;;;;;;15.77;4.75;;;;;;;;;;5030956;28;20017;-64
2021/03/31 07:51:14;;;;;;;10.52;5.18;;;;;;;;;;5032474;28;20041;-64
2021/03/31 07:53:42;;;;;;;13.38;5.35;;;;;;;;;;5032795;28;20102;-65
2021/03/31 07:56:14;;;;;;;12.88;5.72;;;;;;;;;;5033207;28;20060;-65
2021/03/31 07:58:40;;;;;;;11.95;5.03;;;;;;;;;;5045543;28;20080;-64
2021/03/31 08:01:07;;;;;;;12.52;5.47;;;;;;;;;;5039413;28;20021;-65
2021/03/31 08:03:33;;;;;;;12.80;5.15;;;;;;;;;;5037899;28;20032;-64
2021/03/31 08:06:02;;;;;;;11.20;5.13;;;;;;;;;;5036540;28;20021;-64
2021/03/31 08:08:27;;;;;;;13.07;4.78;;;;;;;;;;5048353;28;20024;-65
2021/03/31 08:10:53;;;;;;;13.93;5.55;;;;;;;;;;5033847;28;20022;-64
2021/03/31 08:13:31;;;;;;;34.80;7.78;;;;;;;;;;5049056;28;20044;-63
2021/03/31 08:15:57;;;;;;;14.00;5.60;;;;;;;;;;5039285;28;20090;-65
2021/03/31 08:18:23;;;;;;;12.70;5.72;;;;;;;;;;5048412;28;20025;-64
2021/03/31 08:20:49;;;;;;;12.40;5.75;;;;;;;;;;5037900;28;20159;-62
2021/03/31 08:23:14;;;;;;;17.33;6.28;;;;;;;;;;5040913;28;20013;-64
2021/03/31 08:25:39;;;;;;;14.65;6.13;;;;;;;;;;5040498;28;20444;-65
2021/03/31 08:28:08;;;;;;;11.27;5.27;;;;;;;;;;5049514;28;20041;-63
2021/03/31 08:30:36;;;;;;;12.68;5.30;;;;;;;;;;5038245;28;20030;-62
2021/03/31 08:33:02;;;;;;;11.35;5.60;;;;;;;;;;5045384;28;20378;-65
2021/03/31 08:35:28;;;;;;;14.45;6.70;;;;;;;;;;5033415;28;20027;-65
2021/03/31 08:37:53;;;;;;;10.05;5.22;;;;;;;;;;5030073;28;20032;-63
2021/03/31 08:40:19;;;;;;;15.30;6.40;;;;;;;;;;5041391;28;20490;-64
2021/03/31 08:42:51;;;;;;;12.32;6.00;;;;;;;;;;5042329;28;20018;-63
2021/03/31 08:45:28;;;;;;;18.00;7.03;;;;;;;;;;5044880;28;20082;-62
2021/03/31 08:47:54;;;;;;;11.70;6.43;;;;;;;;;;5043324;28;20025;-63
2021/03/31 08:50:30;;;;;;;10.30;5.93;;;;;;;;;;5043457;28;20088;-61
2021/03/31 08:53:05;;;;;;;17.77;6.82;;;;;;;;;;5045492;28;20025;-62
2021/03/31 08:55:32;;;;;;;14.85;5.82;;;;;;;;;;5035994;28;20076;-63
2021/03/31 08:57:58;;;;;;;19.50;6.13;;;;;;;;;;5019330;28;20052;-64
2021/03/31 09:00:23;;;;;;;12.48;5.45;;;;;;;;;;5045416;28;20049;-63
2021/03/31 09:02:48;;;;;;;10.85;6.57;;;;;;;;;;5038308;28;20359;-63
2021/03/31 09:05:14;;;;;;;15.30;6.70;;;;;;;;;;5037555;28;20021;-62
2021/03/31 09:07:40;;;;;;;12.80;5.80;;;;;;;;;;5036928;28;20017;-62
2021/03/31 09:10:10;;;;;;;9.23;5.55;;;;;;;;;;5053209;28;20370;-64
2021/03/31 09:12:35;;;;;;;16.00;5.93;;;;;;;;;;5040614;28;20033;-63
2021/03/31 09:15:02;;;;;;;11.27;6.57;;;;;;;;;;5042873;28;20045;-63
2021/03/31 09:17:28;;;;;;;14.48;5.93;;;;;;;;;;5050429;28;20017;-63
2021/03/31 09:19:58;;;;;;;13.48;6.28;;;;;;;;;;5041227;28;20090;-64
2021/03/31 09:22:28;;;;;;;13.45;5.35;;;;;;;;;;5044159;28;20104;-63
2021/03/31 09:24:55;;;;;;;10.35;6.20;;;;;;;;;;5034574;28;20135;-62
2021/03/31 09:27:25;;;;;;;15.93;5.60;;;;;;;;;;5035645;28;20028;-63
2021/03/31 09:29:52;;;;;;;;;;;;;;;;;;5044332;28;20017;-61
2021/03/31 09:32:23;;;;;;;14.45;6.15;;;;;;;;;;5043414;28;19909;-63
2021/03/31 09:34:48;;;;;;;16.27;6.03;;;;;;;;;;5043397;28;20021;-62
2021/03/31 09:37:14;;;;;;;10.37;4.87;;;;;;;;;;5046209;28;20031;-66
2021/03/31 09:39:50;;;;;;;13.82;6.22;;;;;;;;;;5042007;28;20322;-64
2021/03/31 09:42:19;;;;;;;15.90;6.50;;;;;;;;;;5041989;28;20033;-63
2021/03/31 09:44:45;;;;;;;15.02;5.78;;;;;;;;;;5044123;28;20009;-63
2021/03/31 09:47:11;;;;;;;10.95;5.72;;;;;;;;;;5034835;28;20035;-63
2021/03/31 09:49:36;;;;;;;15.32;6.05;;;;;;;;;;5039688;28;20025;-65
2021/03/31 09:52:02;;;;;;;13.02;5.38;;;;;;;;;;5052426;28;20033;-63
2021/03/31 09:54:28;;;;;;;13.15;5.50;;;;;;;;;;5050690;28;20045;-64
2021/03/31 09:56:53;;;;;;;13.13;5.47;;;;;;;;;;5045092;28;20548;-63
2021/03/31 09:59:19;;;;;;;12.02;5.68;;;;;;;;;;5041948;28;20029;-64
2021/03/31 10:01:45;;;;;;;15.18;4.80;;;;;;;;;;5050330;28;20020;-63
2021/03/31 10:04:10;;;;;;;13.57;5.25;;;;;;;;;;5046825;28;20689;-62
2021/03/31 10:06:35;;;;;;;14.15;4.95;;;;;;;;;;5046193;28;20140;-63
2021/03/31 10:09:03;;;;;;;9.40;4.07;;;;;;;;;;5045728;28;20025;-64
2021/03/31 10:11:30;;;;;;;11.30;5.25;;;;;;;;;;5051866;28;20259;-64
2021/03/31 10:13:55;;;;;;;15.05;5.13;;;;;;;;;;5053634;28;20553;-64
2021/03/31 10:16:20;;;;;;;12.77;5.18;;;;;;;;;;5054690;28;20032;-63
2021/03/31 10:18:46;;;;;;;13.90;4.82;;;;;;;;;;5054872;28;20023;-65
2021/03/31 10:21:11;;;;;;;12.93;4.57;;;;;;;;;;5048809;28;20021;-64
2021/03/31 10:23:37;;;;;;;9.90;4.05;;;;;;;;;;5033654;28;20091;-63
2021/03/31 10:26:15;;;;;;;14.23;4.80;;;;;;;;;;5044126;28;20025;-63
2021/03/31 10:28:41;;;;;;;10.45;4.47;;;;;;;;;;5033352;28;20389;-62
2021/03/31 10:31:24;;;;;;;11.27;5.50;;;;;;;;;;5047002;28;20104;-64
2021/03/31 10:33:50;;;;;;;12.15;5.30;;;;;;;;;;5045338;28;20265;-65
2021/03/31 10:36:33;;;;;;;7.10;3.97;;;;;;;;;;5041411;28;20021;-64
2021/03/31 10:39:35;;;;;;;13.65;4.60;;;;;;;;;;5043623;28;20076;-64
2021/03/31 10:50:21;;;;;;;8.23;4.20;;;;;;;;;;5043934;28;20032;-65
2021/03/31 10:52:50;;;;;;;14.13;5.05;;;;;;;;;;5064160;28;20393;-64
2021/03/31 10:55:15;;;;;;;10.55;5.40;;;;;;;;;;5045125;28;20035;-63
2021/03/31 10:57:40;;;;;;;14.32;5.13;;;;;;;;;;5039668;28;20103;-65
2021/03/31 11:00:06;;;;;;;10.33;4.73;;;;;;;;;;5034696;28;20020;-64
2021/03/31 11:02:31;;;;;;;10.75;4.35;;;;;;;;;;5018611;28;20307;-65
2021/03/31 11:04:56;;;;;;;15.05;4.53;;;;;;;;;;5033998;28;20056;-64
2021/03/31 11:07:21;;;;;;;14.43;4.40;;;;;;;;;;5033016;28;20393;-64
2021/03/31 11:09:49;;;;;;;11.27;3.63;;;;;;;;;;5035490;28;20999;-65
2021/03/31 11:12:14;;;;;;;12.75;4.28;;;;;;;;;;5032191;28;20741;-64
2021/03/31 11:14:39;;;;;;;10.00;4.83;;;;;;;;;;5047536;28;20044;-64
2021/03/31 11:17:08;;;;;;;12.60;5.30;;;;;;;;;;5039942;28;20295;-63
2021/03/31 11:27:13;;;;;;;18.20;4.90;;;;;;;;;;5040888;28;20516;-63
2021/03/31 11:29:38;;;;;;;9.80;4.68;;;;;;;;;;5043283;28;20056;-64
2021/03/31 11:32:06;;;;;;;10.03;4.67;;;;;;;;;;5046419;28;20107;-64
2021/03/31 11:34:32;;;;;;;7.47;3.80;;;;;;;;;;5032936;28;20033;-64
2021/03/31 11:36:57;;;;;;;13.82;4.07;;;;;;;;;;5039077;28;20294;-66
2021/03/31 11:39:22;;;;;;;10.00;3.83;;;;;;;;;;5033554;28;20031;-64
2021/03/31 11:41:47;;;;;;;9.17;3.50;;;;;;;;;;5040904;28;20326;-65
2021/03/31 11:44:12;;;;;;;10.73;3.53;;;;;;;;;;5038694;28;20346;-65
2021/03/31 11:46:38;;;;;;;7.70;3.17;;;;;;;;;;5037973;28;20029;-65
2021/03/31 11:49:03;;;;;;;12.55;4.18;;;;;;;;;;5034130;28;20354;-65
2021/03/31 11:51:28;;;;;;;8.35;4.05;;;;;;;;;;5044547;28;20477;-65
2021/03/31 11:53:54;;;;;;;8.90;3.15;;;;;;;;;;5040653;28;20033;-64
2021/03/31 11:56:19;;;;;;;6.70;3.40;;;;;;;;;;5042657;28;20019;-66
2021/03/31 11:58:44;;;;;;;14.90;3.83;;;;;;;;;;5055013;22;20256;-64
2021/03/31 12:01:09;;;;;;;9.47;3.57;;;;;;;;;;5067959;28;20286;-66
2021/03/31 12:03:34;;;;;;;17.43;3.83;;;;;;;;;;5062485;28;20742;-63
2021/03/31 12:06:00;;;;;;;4.67;2.77;;;;;;;;;;5070631;28;20016;-65
2021/03/31 12:08:25;;;;;;;10.68;2.55;;;;;;;;;;5070053;28;20391;-64
2021/03/31 12:10:50;;;;;;;8.02;3.65;;;;;;;;;;5070936;28;20021;-64
2021/03/31 12:13:15;;;;;;;4.53;2.65;;;;;;;;;;5071010;28;20538;-65
2021/03/31 12:15:41;;;;;;;14.40;3.47;;;;;;;;;;5070751;28;20039;-64
2021/03/31 12:18:06;;;;;;;8.75;3.28;;;;;;;;;;5070663;28;20277;-64
2021/03/31 12:20:32;;;;;;;9.57;3.53;;;;;;;;;;5069486;28;20048;-64
2021/03/31 12:22:57;;;;;;;7.22;2.50;;;;;;;;;;5070000;28;20628;-64
2021/03/31 12:25:23;;;;;;;4.40;1.80;;;;;;;;;;5070165;28;20086;-64
2021/03/31 12:27:52;;;;;;;9.00;2.75;;;;;;;;;;5069740;28;20270;-64
2021/03/31 12:30:17;;;;;;;5.30;2.38;;;;;;;;;;5068592;28;20081;-64
2021/03/31 12:32:43;;;;;;;8.20;2.78;;;;;;;;;;5069994;28;20029;-64
2021/03/31 12:35:08;;;;;;;8.83;2.60;;;;;;;;;;5070012;28;20040;-64
2021/03/31 12:37:34;;;;;;;4.53;2.08;;;;;;;;;;5068446;28;20281;-64
2021/03/31 12:40:00;;;;;;;3.17;1.80;;;;;;;;;;5069656;28;20016;-64
2021/03/31 12:42:25;;;;;;;6.18;2.15;;;;;;;;;;5069316;28;20602;-64
2021/03/31 12:44:50;;;;;;;6.05;2.35;;;;;;;;;;5065353;28;20108;-64
2021/03/31 12:47:19;;;;;;;13.88;2.67;;;;;;;;;;5067654;28;20032;-64
2021/03/31 12:49:45;;;;;;;8.15;2.42;;;;;;;;;;5067024;28;20025;-64
2021/03/31 12:52:14;;;;;;;6.13;3.10;;;;;;;;;;5064840;28;20101;-64
2021/03/31 12:54:48;;;;;;;11.40;2.38;;;;;;;;;;5069172;28;20027;-63
2021/03/31 12:57:14;;;;;;;6.07;2.00;;;;;;;;;;5069953;28;20023;-65
2021/03/31 12:59:39;;;;;;;13.52;2.15;;;;;;;;;;5068330;28;20024;-66
2021/03/31 13:02:04;;;;;;;5.77;2.50;;;;;;;;;;5070028;28;20021;-65
2021/03/31 13:04:29;;;;;;;6.00;1.63;;;;;;;;;;5068389;28;20270;-64
2021/03/31 13:06:54;;;;;;;9.10;2.23;;;;;;;;;;5069778;28;20281;-64
2021/03/31 13:09:20;;;;;;;7.40;2.35;;;;;;;;;;5069287;28;20263;-64
2021/03/31 13:11:45;;;;;;;4.30;2.58;;;;;;;;;;5069556;28;20475;-64
2021/03/31 13:16:57;;;;;;;8.13;1.48;;;;;;;;;;5067528;28;20051;-64
2021/03/31 13:22:18;;;;;;;9.35;2.10;;;;;;;;;;5069454;28;20031;-64
2021/03/31 13:24:53;;;;;;;7.57;2.72;;;;;;;;;;5068782;28;20074;-64
2021/03/31 13:32:31;;;;;;;5.22;2.08;;;;;;;;;;5062237;28;20108;-64
2021/03/31 13:35:02;;;;;;;13.27;2.67;;;;;;;;;;5069409;28;20103;-64
2021/03/31 13:37:31;;;;;;;5.15;2.03;;;;;;;;;;5070074;28;20413;-64
2021/03/31 13:39:57;;;;;;;6.88;2.15;;;;;;;;;;5069047;28;20012;-64
2021/03/31 13:42:23;;;;;;;10.23;2.22;;;;;;;;;;5072030;28;20060;-64
2021/03/31 13:44:48;;;;;;;10.98;2.63;;;;;;;;;;5072941;28;20059;-64
2021/03/31 13:47:19;;;;;;;9.57;2.33;;;;;;;;;;5072305;28;20043;-64
2021/03/31 13:50:02;;;;;;;14.35;2.70;;;;;;;;;;5070802;28;20281;-64
2021/03/31 13:52:30;;;;;;;6.95;3.25;;;;;;;;;;5070256;28;20020;-64
2021/03/31 13:54:58;;;;;;;5.70;3.20;;;;;;;;;;5068042;28;20087;-64
2021/03/31 13:57:29;;;;;;;5.82;2.20;;;;;;;;;;5072117;28;20036;-64
2021/03/31 13:59:55;;;;;;;6.75;2.38;;;;;;;;;;5072340;28;20025;-64
2021/03/31 14:02:20;;;;;;;10.23;2.92;;;;;;;;;;5071909;28;20029;-65
2021/03/31 14:04:46;;;;;;;5.90;2.88;;;;;;;;;;5072001;28;20013;-64
2021/03/31 14:07:11;;;;;;;11.52;3.13;;;;;;;;;;5071408;28;20077;-64
2021/03/31 14:09:37;;;;;;;11.43;3.03;;;;;;;;;;5072027;28;20036;-64
2021/03/31 14:12:02;;;;;;;12.48;3.28;;;;;;;;;;5072190;28;20029;-64
2021/03/31 14:14:28;;;;;;;8.18;2.67;;;;;;;;;;5072153;28;20028;-64
2021/03/31 14:17:04;;;;;;;9.77;2.63;;;;;;;;;;5071018;28;20024;-64
2021/03/31 14:19:31;;;;;;;5.18;2.63;;;;;;;;;;5071927;28;20105;-64
2021/03/31 14:21:58;;;;;;;10.70;2.80;;;;;;;;;;5071739;28;20032;-64
2021/03/31 14:24:23;;;;;;;6.20;2.75;;;;;;;;;;5071954;28;20079;-64
2021/03/31 14:26:48;;;;;;;12.57;2.17;;;;;;;;;;5071014;28;20388;-63
2021/03/31 14:29:13;;;;;;;10.67;2.80;;;;;;;;;;5071747;28;20297;-63
2021/03/31 14:31:39;;;;;;;9.50;2.93;;;;;;;;;;5070373;28;20028;-64
2021/03/31 14:34:04;;;;;;;10.32;2.88;;;;;;;;;;5068332;28;20029;-63
2021/03/31 14:36:29;;;;;;;8.57;2.47;;;;;;;;;;5061297;28;20032;-63
2021/03/31 14:38:55;;;;;;;7.68;2.08;;;;;;;;;;5052375;28;20338;-63
2021/03/31 14:41:20;;;;;;;6.72;3.22;;;;;;;;;;5071103;28;20490;-63
2021/03/31 14:43:45;;;;;;;11.10;3.20;;;;;;;;;;5072592;28;20040;-63
2021/03/31 14:46:11;;;;;;;9.63;2.83;;;;;;;;;;5072911;28;20487;-63
2021/03/31 14:48:37;;;;;;;16.73;3.20;;;;;;;;;;5071017;28;20304;-64
2021/03/31 14:51:03;;;;;;;5.22;2.60;;;;;;;;;;5066831;28;20048;-64
2021/03/31 15:01:30;;;;;;;11.07;2.92;;;;;;;;;;5055069;28;20078;-64
2021/03/31 15:03:55;;;;;;;16.27;3.37;;;;;;;;;;5070278;28;20020;-64
2021/03/31 15:06:20;;;;;;;13.17;3.37;;;;;;;;;;5069802;28;20031;-64
2021/03/31 15:08:46;;;;;;;5.93;3.13;;;;;;;;;;5070971;28;20259;-64